createdAt,value
2017-10-06T00:02:01.620Z,10.25
2017-10-06T00:07:48.388Z,10.51
2017-10-06T00:13:35.081Z,10.38
2017-10-06T00:19:19.240Z,10.31
2017-10-06T00:25:08.734Z,10.30
2017-10-06T00:30:47.315Z,10.35
2017-10-06T00:36:32.608Z,10.47
2017-10-06T00:42:17.551Z,10.83
2017-10-06T00:48:00.623Z,11.02
2017-10-06T00:53:49.902Z,10.84
2017-10-06T00:59:33.920Z,10.58
2017-10-06T01:05:22.890Z,10.75
2017-10-06T01:11:03.264Z,10.54
2017-10-06T01:16:46.796Z,10.40
2017-10-06T01:22:36.222Z,10.49
2017-10-06T01:28:19.673Z,10.60
2017-10-06T01:34:02.536Z,10.54
2017-10-06T01:39:48.984Z,10.22
2017-10-06T01:45:33.967Z,10.28
2017-10-06T01:51:20.560Z,10.46
2017-10-06T01:57:07.291Z,10.36
2017-10-06T02:02:49.956Z,10.45
2017-10-06T02:08:36.987Z,10.21
2017-10-06T02:14:19.907Z,10.10
2017-10-06T02:20:02.876Z,10.08
2017-10-06T02:25:49.149Z,10.09
2017-10-06T02:31:32.649Z,10.12
2017-10-06T02:37:16.767Z,10.09
2017-10-06T02:43:01.680Z,10.19
2017-10-06T02:48:46.582Z,10.00
2017-10-06T02:54:35.790Z,9.96
2017-10-06T03:00:19.871Z,10.00
2017-10-06T03:06:03.180Z,10.09
2017-10-06T03:11:51.814Z,10.19
2017-10-06T03:17:37.464Z,10.24
2017-10-06T03:23:17.652Z,10.19
2017-10-06T03:29:07.146Z,10.16
2017-10-06T03:34:50.695Z,10.19
2017-10-06T03:40:37.428Z,10.17
2017-10-06T03:46:18.157Z,10.29
2017-10-06T03:52:01.848Z,10.04
2017-10-06T03:57:49.007Z,10.06
2017-10-06T04:03:38.353Z,10.09
2017-10-06T04:09:21.825Z,10.08
2017-10-06T04:15:04.827Z,9.97
2017-10-06T04:20:47.759Z,9.95
2017-10-06T04:26:34.947Z,9.91
2017-10-06T04:32:18.039Z,9.96
2017-10-06T04:38:07.237Z,10.07
2017-10-06T04:43:50.961Z,10.04
2017-10-06T04:49:34.200Z,9.98
2017-10-06T04:55:23.652Z,10.17
2017-10-06T05:01:04.656Z,10.09
2017-10-06T05:06:47.355Z,10.12
2017-10-06T05:12:36.765Z,10.01
2017-10-06T05:18:20.289Z,10.10
2017-10-06T05:24:07.159Z,10.23
2017-10-06T05:29:50.048Z,10.17
2017-10-06T05:35:33.283Z,10.17
2017-10-06T05:41:16.397Z,10.07
2017-10-06T05:47:03.371Z,10.12
2017-10-06T05:52:46.683Z,10.19
2017-10-06T05:58:35.725Z,10.31
2017-10-06T06:04:19.403Z,10.31
2017-10-06T06:10:06.523Z,10.23
2017-10-06T06:15:49.603Z,10.23
2017-10-06T06:21:32.616Z,10.11
2017-10-06T06:27:19.517Z,10.06
2017-10-06T06:33:03.480Z,10.13
2017-10-06T06:38:48.395Z,10.05
2017-10-06T06:44:32.127Z,10.13
2017-10-06T06:50:18.944Z,10.05
2017-10-06T06:56:02.682Z,10.08
2017-10-06T07:01:52.275Z,10.16
2017-10-06T07:07:40.595Z,10.04
2017-10-06T07:13:22.968Z,10.17
2017-10-06T07:19:05.603Z,10.27
2017-10-06T07:24:48.444Z,10.44
2017-10-06T07:30:32.842Z,10.45
2017-10-06T07:36:22.206Z,10.49
2017-10-06T07:42:06.190Z,10.52
2017-10-06T07:47:48.822Z,10.60
2017-10-06T07:53:33.591Z,10.60
2017-10-06T07:59:20.056Z,10.73
2017-10-06T08:05:09.351Z,10.88
2017-10-06T08:10:50.160Z,11.00
2017-10-06T08:16:32.936Z,11.26
2017-10-06T08:22:19.924Z,11.43
2017-10-06T08:28:06.807Z,11.46
2017-10-06T08:33:51.695Z,11.87
2017-10-06T08:39:36.836Z,12.25
2017-10-06T08:45:19.707Z,11.96
2017-10-06T08:51:08.804Z,12.01
2017-10-06T08:56:50.714Z,11.94
2017-10-06T09:02:33.422Z,11.59
2017-10-06T09:08:18.106Z,11.85
2017-10-06T09:14:07.498Z,11.94
2017-10-06T09:19:51.122Z,12.03
2017-10-06T09:25:34.083Z,11.93
2017-10-06T09:31:21.079Z,12.30
2017-10-06T09:37:07.920Z,12.63
2017-10-06T09:42:50.949Z,13.48
2017-10-06T09:48:34.034Z,13.62
2017-10-06T09:54:17.376Z,13.69
2017-10-06T10:00:06.719Z,13.56
2017-10-06T10:05:50.160Z,12.86
2017-10-06T10:11:37.259Z,12.76
2017-10-06T10:17:20.135Z,12.93
2017-10-06T10:23:02.823Z,13.10
2017-10-06T10:28:49.439Z,13.01
2017-10-06T10:34:36.176Z,12.60
2017-10-06T10:40:19.110Z,12.30
2017-10-06T10:46:02.484Z,12.34
2017-10-06T10:51:51.378Z,12.19
2017-10-06T10:57:34.027Z,12.31
2017-10-06T11:03:18.443Z,12.47
2017-10-06T11:09:05.317Z,12.43
2017-10-06T11:14:50.802Z,12.46
2017-10-06T11:20:35.399Z,12.52
2017-10-06T11:26:22.143Z,12.37
2017-10-06T11:32:04.978Z,12.16
2017-10-06T11:37:48.572Z,12.23
2017-10-06T11:43:35.400Z,12.34
2017-10-06T11:49:19.295Z,12.53
2017-10-06T11:55:03.644Z,12.56
2017-10-06T12:00:51.139Z,12.77
2017-10-06T12:06:34.220Z,12.87
2017-10-06T12:12:18.207Z,12.77
2017-10-06T12:18:07.290Z,12.70
2017-10-06T12:23:50.484Z,12.60
2017-10-06T12:29:33.472Z,12.43
2017-10-06T12:35:22.789Z,12.41
2017-10-06T12:41:05.878Z,12.92
2017-10-06T12:46:52.323Z,13.28
2017-10-06T12:52:35.195Z,13.29
2017-10-06T12:58:18.143Z,13.47
2017-10-06T13:04:04.969Z,13.39
2017-10-06T13:09:48.731Z,13.55
2017-10-06T13:15:35.440Z,14.02
2017-10-06T13:21:19.301Z,14.60
2017-10-06T13:27:06.312Z,14.95
2017-10-06T13:32:49.167Z,15.03
2017-10-06T13:38:38.188Z,15.32
2017-10-06T13:44:21.502Z,15.39
2017-10-06T13:50:08.126Z,15.00
2017-10-06T13:55:51.032Z,14.80
2017-10-06T14:01:37.783Z,15.21
2017-10-06T14:07:20.485Z,15.44
2017-10-06T14:13:03.348Z,15.32
2017-10-06T14:18:52.554Z,15.06
2017-10-06T14:24:36.683Z,15.28
2017-10-06T14:30:21.680Z,15.03
2017-10-06T14:36:11.083Z,15.26
2017-10-06T14:41:54.572Z,15.17
2017-10-06T14:47:37.732Z,14.89
2017-10-06T14:53:20.648Z,15.68
2017-10-06T14:59:07.571Z,15.92
2017-10-06T15:04:50.302Z,16.04
2017-10-06T15:10:39.195Z,15.84
2017-10-06T15:16:22.757Z,15.65
2017-10-06T15:22:09.565Z,15.38
2017-10-06T15:27:52.191Z,15.18
2017-10-06T15:33:35.227Z,15.37
2017-10-06T15:39:20.354Z,15.25
2017-10-06T15:45:03.404Z,15.07
2017-10-06T15:50:52.074Z,14.95
2017-10-06T15:56:35.284Z,14.68
2017-10-06T16:02:17.948Z,14.50
2017-10-06T16:08:07.182Z,14.69
2017-10-06T16:13:50.504Z,14.97
2017-10-06T16:19:37.123Z,15.03
2017-10-06T16:25:20.095Z,14.92
2017-10-06T16:31:09.358Z,14.71
2017-10-06T16:36:52.580Z,14.66
2017-10-06T16:42:35.767Z,14.85
2017-10-06T16:48:22.592Z,14.51
2017-10-06T16:54:05.372Z,14.48
2017-10-06T16:59:52.036Z,13.69
2017-10-06T17:46:06.636Z,13.22
2017-10-06T17:51:55.464Z,12.95
2017-10-06T18:50:07.686Z,12.83
2017-10-06T18:55:52.425Z,12.95
2017-10-06T19:01:35.129Z,12.52
2017-10-06T19:07:20.049Z,12.83
2017-10-06T19:13:06.672Z,12.87
2017-10-06T19:18:49.602Z,12.73
2017-10-06T19:24:38.925Z,12.72
2017-10-06T19:30:22.095Z,12.93
2017-10-06T19:36:06.996Z,12.83
2017-10-06T19:41:51.707Z,12.63
2017-10-06T19:47:36.416Z,12.64
2017-10-06T19:53:19.601Z,12.79
2017-10-06T19:59:04.280Z,12.76
2017-10-06T20:04:50.984Z,12.63
2017-10-06T20:10:37.641Z,12.56
2017-10-06T20:16:21.735Z,12.47
2017-10-06T20:22:06.208Z,12.30
2017-10-06T20:27:49.368Z,12.20
2017-10-06T20:33:38.461Z,12.48
2017-10-06T20:39:21.663Z,12.32
2017-10-06T20:45:04.584Z,12.28
2017-10-06T20:50:51.659Z,12.08
2017-10-06T20:56:41.045Z,12.11
2017-10-06T21:02:24.196Z,12.20
2017-10-06T21:08:07.107Z,11.95
2017-10-06T21:13:49.871Z,12.06
2017-10-06T21:19:39.077Z,12.32
2017-10-06T21:25:22.224Z,12.26
2017-10-06T21:31:07.377Z,12.32
2017-10-06T21:36:51.912Z,12.23
2017-10-06T21:42:34.515Z,12.16
2017-10-06T21:48:21.447Z,12.13
2017-10-06T21:54:08.099Z,12.24
2017-10-06T21:59:50.488Z,12.06
2017-10-06T22:05:35.128Z,11.93
2017-10-06T22:11:24.611Z,12.12
2017-10-06T22:17:07.647Z,12.24
2017-10-06T22:22:50.422Z,12.08
2017-10-06T22:28:34.877Z,12.10
2017-10-06T22:34:21.551Z,11.84
2017-10-06T22:40:08.335Z,11.80
2017-10-06T22:45:51.903Z,11.52
2017-10-06T22:51:40.423Z,11.59
2017-10-06T22:57:23.390Z,11.58
2017-10-06T23:03:10.043Z,11.55
2017-10-06T23:08:49.886Z,11.54
2017-10-06T23:14:38.500Z,11.46
2017-10-06T23:20:25.135Z,11.52
2017-10-06T23:26:08.087Z,11.58
2017-10-06T23:31:51.926Z,11.44
2017-10-06T23:37:35.346Z,11.60
2017-10-06T23:43:22.186Z,11.56
2017-10-06T23:49:11.525Z,11.64
2017-10-06T23:54:55.026Z,11.75
